Time;durP1;ratioP1;P1;durP2;ratioP2;P2;SDS_P1;SDS_P2;PMS_P1;PMS_P2;Temp;Humidity;BMP_temperature;BMP_pressure;BME280_temperature;BME280_humidity;BME280_pressure;Samples;Min_cycle;Max_cycle;Signal;HPM_P1;HPM_P2
2021/12/09 00:02:19;;;;;;;31.60;19.05;;;;;;;2.80;75.41;99558.94;5072064;28;20161;-49
2021/12/09 00:04:44;;;;;;;33.97;19.33;;;;;;;2.79;75.24;99552.84;5071926;28;20021;-49
2021/12/09 00:07:09;;;;;;;28.45;17.90;;;;;;;2.79;75.49;99552.84;5073971;28;20544;-50
2021/12/09 00:09:35;;;;;;;27.73;18.55;;;;;;;2.79;75.52;99547.63;5072672;28;20040;-49
2021/12/09 00:12:00;;;;;;;33.50;19.25;;;;;;;2.79;75.01;99538.94;5072627;28;20039;-50
2021/12/09 00:14:33;;;;;;;30.08;19.02;;;;;;;2.80;75.64;99558.94;5074542;28;20029;-49
2021/12/09 00:17:07;;;;;;;34.75;18.98;;;;;;;2.82;75.35;99557.19;5073931;28;20085;-50
2021/12/09 00:19:38;;;;;;;30.67;18.92;;;;;;;2.81;75.36;99563.25;5072181;28;20120;-50
2021/12/09 00:22:07;;;;;;;34.33;18.70;;;;;;;2.82;75.24;99567.59;5072289;28;20027;-50
2021/12/09 00:24:34;;;;;;;32.45;19.38;;;;;;;2.81;75.11;99553.69;5071077;28;20024;-49
2021/12/09 00:26:59;;;;;;;32.17;18.83;;;;;;;2.80;75.25;99564.13;5073636;28;20032;-50
2021/12/09 00:29:28;;;;;;;31.80;19.13;;;;;;;2.81;75.26;99569.31;5074003;28;20033;-50
2021/12/09 00:31:53;;;;;;;30.35;17.55;;;;;;;2.80;75.10;99580.63;5075140;28;20118;-50
2021/12/09 00:34:27;;;;;;;29.67;18.17;;;;;;;2.82;75.21;99588.44;5071334;28;20166;-50
2021/12/09 00:36:59;;;;;;;32.55;19.02;;;;;;;2.80;75.10;99590.19;5070118;28;20050;-49
2021/12/09 00:39:24;;;;;;;31.15;19.05;;;;;;;2.80;75.33;99606.66;5054313;28;20028;-49
2021/12/09 00:41:50;;;;;;;31.90;18.13;;;;;;;2.81;75.48;99599.72;5074700;28;20036;-50
2021/12/09 00:44:18;;;;;;;35.75;19.55;;;;;;;2.81;75.52;99597.13;5071519;28;20077;-50
2021/12/09 00:46:47;;;;;;;32.53;17.95;;;;;;;2.80;75.09;99580.63;5053365;28;20032;-49
2021/12/09 00:49:13;;;;;;;30.23;17.30;;;;;;;2.78;75.49;99571.94;5072227;28;20021;-50
2021/12/09 00:51:41;;;;;;;29.02;18.08;;;;;;;2.78;75.35;99560.63;5072652;28;20135;-49
2021/12/09 00:54:31;;;;;;;33.58;18.83;;;;;;;2.79;75.11;99552.84;5070107;28;20084;-50
2021/12/09 00:56:56;;;;;;;32.15;18.65;;;;;;;2.79;75.28;99554.56;5073702;28;20028;-50
2021/12/09 00:59:21;;;;;;;31.98;19.17;;;;;;;2.78;75.45;99540.69;5071972;28;20032;-50
2021/12/09 01:01:47;;;;;;;30.52;17.73;;;;;;;2.78;75.42;99539.81;5071157;28;20484;-49
2021/12/09 01:04:13;;;;;;;28.33;17.52;;;;;;;2.79;75.41;99547.63;5073064;28;20016;-50
2021/12/09 01:06:38;;;;;;;29.27;18.20;;;;;;;2.78;75.26;99545.91;5074472;28;20021;-50
2021/12/09 01:09:04;;;;;;;34.10;17.60;;;;;;;2.78;75.10;99561.53;5071621;28;20024;-50
2021/12/09 01:11:29;;;;;;;30.25;19.52;;;;;;;2.78;75.43;99566.72;5067972;28;20036;-50
2021/12/09 01:13:55;;;;;;;30.17;18.23;;;;;;;2.80;75.33;99574.56;5053724;28;20025;-50
2021/12/09 01:16:20;;;;;;;30.92;18.95;;;;;;;2.80;75.24;99564.13;5070681;28;20024;-50
2021/12/09 01:18:45;;;;;;;31.27;18.90;;;;;;;2.78;75.18;99568.44;5074629;28;20070;-50
2021/12/09 01:21:11;;;;;;;34.83;19.52;;;;;;;2.77;75.54;99578.00;5074410;28;20040;-50
2021/12/09 01:23:36;;;;;;;35.65;19.90;;;;;;;2.78;75.33;99586.69;5052741;28;20095;-50
2021/12/09 01:26:02;;;;;;;32.70;19.13;;;;;;;2.77;75.60;99579.75;5071630;28;20089;-50
2021/12/09 01:28:31;;;;;;;30.50;18.98;;;;;;;2.78;75.51;99597.09;5074839;28;20024;-50
2021/12/09 01:31:02;;;;;;;29.13;18.02;;;;;;;2.78;75.31;99587.56;5071458;28;20108;-50
2021/12/09 01:33:29;;;;;;;28.90;18.02;;;;;;;2.78;75.16;99586.69;5070704;28;20115;-50
2021/12/09 01:35:54;;;;;;;31.35;18.90;;;;;;;2.79;75.14;99573.69;5071228;28;20032;-50
2021/12/09 01:38:22;;;;;;;27.50;17.70;;;;;;;2.78;75.31;99573.66;5071731;28;20029;-50
2021/12/09 01:40:47;;;;;;;33.13;18.25;;;;;;;2.75;75.68;99565.81;5070212;28;20031;-50
2021/12/09 01:43:13;;;;;;;35.42;18.27;;;;;;;2.78;75.06;99571.06;5069613;28;20021;-50
2021/12/09 01:45:39;;;;;;;32.05;19.20;;;;;;;2.79;75.41;99565.84;5074385;28;20016;-50
2021/12/09 01:48:05;;;;;;;33.50;18.38;;;;;;;2.78;75.33;99581.47;5074908;28;20032;-50
2021/12/09 01:50:32;;;;;;;37.45;19.73;;;;;;;2.78;75.36;99586.69;5057152;28;20029;-50
2021/12/09 01:52:57;;;;;;;34.00;19.67;;;;;;;2.78;75.23;99600.59;5074467;28;20020;-50
2021/12/09 01:55:23;;;;;;;31.05;18.30;;;;;;;2.78;75.18;99597.09;5075169;28;20028;-50
2021/12/09 01:57:52;;;;;;;31.42;17.70;;;;;;;2.78;75.33;99591.91;5077281;28;20016;-50
2021/12/09 02:00:38;;;;;;;30.83;19.55;;;;;;;2.78;74.91;99591.91;5080739;28;20519;-50
2021/12/09 02:03:05;;;;;;;35.08;18.52;;;;;;;2.78;74.92;99591.91;5073623;28;20603;-50
2021/12/09 02:05:31;;;;;;;27.67;17.00;;;;;;;2.77;75.44;99601.44;5058403;28;20065;-50
2021/12/09 02:07:59;;;;;;;33.17;18.77;;;;;;;2.77;75.38;99600.56;5075735;28;20036;-50
2021/12/09 02:10:26;;;;;;;31.67;18.42;;;;;;;2.76;75.26;99599.69;5077652;28;20070;-50
2021/12/09 02:12:52;;;;;;;33.38;19.00;;;;;;;2.76;75.25;99591.00;5074368;28;20043;-50
2021/12/09 02:15:20;;;;;;;31.20;18.23;;;;;;;2.78;75.25;99591.91;5073019;28;20499;-50
2021/12/09 02:17:51;;;;;;;30.17;17.98;;;;;;;2.76;75.15;99589.28;5071767;28;21517;-50
2021/12/09 02:20:16;;;;;;;;;;;;;;;2.76;75.21;99593.59;5072224;28;20059;-50
2021/12/09 02:22:46;;;;;;;32.10;18.13;;;;;;;2.74;75.05;99595.34;5076037;28;19955;-50
2021/12/09 02:25:13;;;;;;;31.73;18.77;;;;;;;2.74;75.43;99584.94;5076833;28;20032;-50
2021/12/09 02:27:38;;;;;;;32.53;19.15;;;;;;;2.76;75.36;99577.97;5074727;28;20093;-50
2021/12/09 02:30:04;;;;;;;31.33;19.13;;;;;;;2.74;75.43;99591.03;5072037;28;20032;-50
2021/12/09 02:32:29;;;;;;;34.60;18.35;;;;;;;2.76;75.17;99593.59;5040079;28;20036;-50
2021/12/09 02:34:54;;;;;;;34.22;19.30;;;;;;;2.75;75.16;99586.66;5071611;28;20031;-50
2021/12/09 02:40:41;;;;;;;32.55;19.75;;;;;;;2.75;75.20;99568.44;5071738;28;20035;-50
2021/12/09 02:43:08;;;;;;;30.17;18.65;;;;;;;2.73;75.06;99568.41;5072698;28;20024;-50
2021/12/09 02:45:35;;;;;;;36.70;21.05;;;;;;;2.75;75.21;99577.13;5074107;28;20107;-50
2021/12/09 02:48:00;;;;;;;35.75;20.05;;;;;;;2.76;74.93;99577.97;5073622;28;20079;-50
2021/12/09 02:50:25;;;;;;;30.67;19.23;;;;;;;2.77;75.35;99588.41;5079325;28;20440;-50
2021/12/09 02:52:51;;;;;;;33.50;19.25;;;;;;;2.77;75.23;99601.44;5073601;28;20024;-50
2021/12/09 02:55:16;;;;;;;33.83;20.25;;;;;;;2.77;75.47;99598.81;5072481;28;20032;-50
2021/12/09 02:57:42;;;;;;;35.80;19.23;;;;;;;2.75;75.37;99586.66;5077686;28;20043;-50
2021/12/09 03:00:09;;;;;;;34.03;20.23;;;;;;;2.74;75.10;99595.34;5078045;28;20039;-50
2021/12/09 03:02:43;;;;;;;37.92;20.58;;;;;;;2.74;75.29;99601.44;5073864;28;20028;-50
2021/12/09 03:05:08;;;;;;;34.80;20.58;;;;;;;2.74;74.93;99601.44;5072807;28;20508;-49
2021/12/09 03:07:37;;;;;;;34.50;20.70;;;;;;;2.75;75.05;99610.09;5073933;28;20028;-50
2021/12/09 03:10:20;;;;;;;35.03;20.98;;;;;;;2.74;75.11;99601.44;5073766;28;20491;-50
2021/12/09 03:12:49;;;;;;;35.42;19.00;;;;;;;2.73;75.34;99594.47;5075696;28;20480;-50
2021/12/09 03:15:15;;;;;;;34.85;20.17;;;;;;;2.76;75.36;99593.59;5075708;28;20017;-50
2021/12/09 03:17:42;;;;;;;37.47;21.48;;;;;;;2.73;75.22;99586.66;5073999;28;20017;-50
2021/12/09 03:20:09;;;;;;;33.55;18.88;;;;;;;2.74;75.08;99588.41;5069329;28;20064;-50
2021/12/09 03:22:35;;;;;;;35.50;19.35;;;;;;;2.75;75.25;99586.66;5071665;28;20039;-50
2021/12/09 03:25:01;;;;;;;33.85;20.02;;;;;;;2.73;75.33;99576.22;5074419;28;20361;-50
2021/12/09 03:27:29;;;;;;;33.03;19.63;;;;;;;2.73;75.09;99575.38;5073802;28;20098;-50
2021/12/09 03:29:54;;;;;;;32.78;20.92;;;;;;;2.71;75.16;99579.69;5076398;28;20074;-50
2021/12/09 03:32:22;;;;;;;34.58;20.48;;;;;;;2.74;75.19;99590.13;5071821;28;20032;-50
2021/12/09 03:34:47;;;;;;;31.23;18.60;;;;;;;2.74;75.25;99601.44;5072282;28;20025;-50
2021/12/09 03:37:17;;;;;;;34.25;19.60;;;;;;;2.74;74.85;99605.75;5072899;28;20028;-51
2021/12/09 03:39:43;;;;;;;33.78;19.73;;;;;;;2.74;75.28;99610.97;5074731;28;20020;-50
2021/12/09 03:42:10;;;;;;;34.38;20.75;;;;;;;2.74;74.86;99621.38;5075077;28;20070;-50
2021/12/09 03:44:40;;;;;;;33.22;19.02;;;;;;;2.73;75.31;99620.50;5070447;28;20035;-50
2021/12/09 03:50:27;;;;;;;32.70;19.77;;;;;;;2.73;75.09;99624.84;5072940;28;20121;-51
2021/12/09 03:52:52;;;;;;;34.00;20.45;;;;;;;2.72;75.07;99628.31;5075322;28;20071;-51
2021/12/09 03:55:24;;;;;;;31.67;20.13;;;;;;;2.73;75.16;99630.06;5075124;28;20024;-51
2021/12/09 03:57:49;;;;;;;35.85;19.60;;;;;;;2.72;75.17;99623.97;5067921;28;20510;-51
2021/12/09 04:00:15;;;;;;;31.52;19.88;;;;;;;2.74;75.34;99616.19;5067446;28;20032;-51
2021/12/09 04:02:43;;;;;;;29.10;17.77;;;;;;;2.72;74.96;99604.88;5070546;28;20024;-51
2021/12/09 04:05:11;;;;;;;33.80;18.67;;;;;;;2.72;75.04;99612.69;5056797;28;20063;-51
2021/12/09 04:07:40;;;;;;;36.20;19.20;;;;;;;2.72;75.20;99603.16;5074900;28;20028;-51
2021/12/09 04:10:06;;;;;;;34.05;19.77;;;;;;;2.72;75.37;99615.28;5070986;28;20085;-50
2021/12/09 04:12:31;;;;;;;31.48;18.90;;;;;;;2.72;75.20;99610.97;5074717;28;20025;-51
2021/12/09 04:14:57;;;;;;;35.65;20.80;;;;;;;2.73;75.18;99614.44;5053635;28;20074;-50
2021/12/09 04:17:22;;;;;;;38.72;21.08;;;;;;;2.72;75.07;99625.69;5074511;28;20020;-50
2021/12/09 04:19:48;;;;;;;37.67;20.35;;;;;;;2.71;75.22;99632.66;5075813;28;20024;-50
2021/12/09 04:22:20;;;;;;;35.30;20.25;;;;;;;2.71;75.43;99634.38;5071921;28;20016;-50
2021/12/09 04:24:50;;;;;;;36.50;21.13;;;;;;;2.70;74.84;99623.09;5071681;28;20097;-51
2021/12/09 04:27:16;;;;;;;35.20;19.33;;;;;;;2.71;75.18;99622.25;5073485;28;20031;-50
2021/12/09 04:29:44;;;;;;;32.90;18.63;;;;;;;2.72;74.91;99629.19;5071893;28;20036;-50
2021/12/09 04:32:10;;;;;;;35.95;21.05;;;;;;;2.71;75.10;99621.34;5054260;28;20515;-51
2021/12/09 04:34:35;;;;;;;37.03;19.45;;;;;;;2.72;74.86;99623.09;5052051;28;20030;-51
2021/12/09 04:37:01;;;;;;;34.83;19.52;;;;;;;2.72;75.00;99617.88;5072459;28;20567;-51
2021/12/09 04:39:26;;;;;;;32.65;20.55;;;;;;;2.69;75.07;99619.63;5054152;28;20413;-51
2021/12/09 04:41:54;;;;;;;32.92;19.50;;;;;;;2.69;75.35;99617.03;5074050;28;20023;-51
2021/12/09 04:44:19;;;;;;;33.67;19.20;;;;;;;2.71;75.10;99626.56;5077323;28;20036;-51
2021/12/09 04:46:44;;;;;;;34.20;19.75;;;;;;;2.71;75.22;99618.75;5072306;28;20029;-50
2021/12/09 04:49:13;;;;;;;34.38;21.40;;;;;;;2.69;75.00;99614.41;5075009;28;20024;-49
2021/12/09 04:51:38;;;;;;;34.72;19.80;;;;;;;2.71;74.99;99610.94;5071923;28;20025;-51
2021/12/09 04:54:04;;;;;;;32.78;19.20;;;;;;;2.70;75.17;99610.06;5075333;28;20054;-56
2021/12/09 04:56:30;;;;;;;34.50;19.08;;;;;;;2.66;74.85;99593.56;5071410;28;20031;-50
2021/12/09 04:58:55;;;;;;;41.58;21.77;;;;;;;2.69;74.74;99597.91;5071354;28;20368;-55
2021/12/09 05:01:21;;;;;;;36.63;20.17;;;;;;;2.69;75.25;99597.91;5074692;28;20425;-54
2021/12/09 05:03:48;;;;;;;36.42;20.38;;;;;;;2.70;75.00;99604.84;5074586;28;20046;-50
2021/12/09 05:06:15;;;;;;;34.45;20.70;;;;;;;2.70;75.15;99599.66;5073791;28;20436;-50
2021/12/09 05:08:48;;;;;;;37.45;20.50;;;;;;;2.69;75.22;99609.22;5078112;28;20055;-50
2021/12/09 05:11:48;;;;;;;34.05;20.02;;;;;;;2.69;75.06;99624.84;5070369;28;20024;-51
2021/12/09 05:14:22;;;;;;;34.97;18.92;;;;;;;2.71;75.08;99634.38;5056940;28;20112;-49
2021/12/09 05:16:53;;;;;;;33.35;20.23;;;;;;;2.70;74.94;99630.88;5071976;28;20052;-54
2021/12/09 05:19:19;;;;;;;34.35;19.88;;;;;;;2.69;75.25;99627.44;5072945;28;20111;-51
2021/12/09 05:21:44;;;;;;;40.75;21.75;;;;;;;2.69;75.30;99635.25;5055681;28;20154;-49
2021/12/09 05:24:11;;;;;;;35.55;21.10;;;;;;;2.69;75.00;99640.47;5080639;28;20036;-52
2021/12/09 05:26:46;;;;;;;36.30;22.67;;;;;;;2.69;75.16;99644.78;5075332;28;20111;-49
2021/12/09 05:29:15;;;;;;;35.70;19.77;;;;;;;2.71;75.32;99655.22;5075580;28;20028;-50
2021/12/09 05:34:24;;;;;;;32.83;19.75;;;;;;;2.69;74.97;99652.59;5070302;28;20511;-51
2021/12/09 05:36:50;;;;;;;37.60;19.80;;;;;;;2.67;75.26;99649.13;5078135;28;20025;-49
2021/12/09 05:39:16;;;;;;;36.63;20.98;;;;;;;2.67;75.24;99657.78;5075130;28;20036;-50
2021/12/09 05:41:45;;;;;;;34.65;21.50;;;;;;;2.66;74.81;99656.06;5075792;28;20028;-50
2021/12/09 05:44:12;;;;;;;34.58;19.20;;;;;;;2.68;74.80;99656.06;5076974;28;20042;-54
2021/12/09 05:46:39;;;;;;;34.60;19.98;;;;;;;2.67;75.11;99642.16;5055974;28;20029;-51
2021/12/09 05:49:05;;;;;;;34.28;20.35;;;;;;;2.67;75.10;99633.50;5059740;28;20024;-48
2021/12/09 05:51:31;;;;;;;37.90;22.17;;;;;;;2.66;75.06;99614.41;5058943;28;20032;-50
2021/12/09 05:53:56;;;;;;;36.30;20.67;;;;;;;2.67;75.38;99621.34;5078765;28;20028;-51
2021/12/09 05:56:25;;;;;;;41.40;20.83;;;;;;;2.68;75.04;99630.03;5076870;28;20036;-50
2021/12/09 05:58:50;;;;;;;38.25;21.63;;;;;;;2.66;74.94;99632.63;5077857;28;20028;-50
2021/12/09 06:01:16;;;;;;;34.30;20.75;;;;;;;2.66;75.23;99623.91;5074877;28;20040;-50
2021/12/09 06:03:42;;;;;;;33.58;19.90;;;;;;;2.65;75.07;99627.41;5074750;28;20476;-48
2021/12/09 06:06:07;;;;;;;40.13;21.60;;;;;;;2.68;75.07;99628.31;5057151;28;20089;-48
2021/12/09 06:08:36;;;;;;;37.13;21.90;;;;;;;2.66;74.94;99640.44;5079819;28;20025;-50
2021/12/09 06:11:02;;;;;;;38.78;23.33;;;;;;;2.67;74.96;99651.72;5074978;28;20028;-50
2021/12/09 06:13:30;;;;;;;38.40;22.85;;;;;;;2.66;74.93;99656.06;5060914;28;20586;-51
2021/12/09 06:15:55;;;;;;;36.63;22.02;;;;;;;2.66;74.94;99653.44;5071524;28;20102;-50
2021/12/09 06:18:24;;;;;;;38.22;21.65;;;;;;;2.65;74.93;99656.03;5076754;28;20035;-49
2021/12/09 06:20:50;;;;;;;40.03;22.50;;;;;;;2.68;74.84;99653.47;5073339;28;20032;-51
2021/12/09 06:23:16;;;;;;;39.97;22.27;;;;;;;2.68;74.96;99659.56;5079935;28;20024;-50
2021/12/09 06:25:41;;;;;;;39.40;21.75;;;;;;;2.68;75.05;99658.66;5074612;28;20111;-50
2021/12/09 06:28:07;;;;;;;37.15;21.13;;;;;;;2.67;75.28;99663.00;5074844;28;20024;-49
2021/12/09 06:30:32;;;;;;;34.90;21.17;;;;;;;2.68;74.93;99664.75;5078699;28;20074;-49
2021/12/09 06:32:58;;;;;;;40.85;21.75;;;;;;;2.66;74.87;99665.59;5078966;28;20025;-49
2021/12/09 06:35:26;;;;;;;39.50;22.40;;;;;;;2.67;74.91;99669.97;5079444;28;20032;-50
2021/12/09 06:37:56;;;;;;;36.35;20.48;;;;;;;2.64;74.85;99678.59;5074643;28;20480;-50
2021/12/09 06:40:25;;;;;;;35.35;20.27;;;;;;;2.66;74.84;99684.69;5077402;28;20028;-49
2021/12/09 06:42:51;;;;;;;36.28;21.65;;;;;;;2.66;74.95;99692.50;5075532;28;20050;-50
2021/12/09 06:45:18;;;;;;;36.22;21.23;;;;;;;2.64;75.18;99689.00;5056350;28;20056;-49
2021/12/09 06:47:44;;;;;;;38.42;20.75;;;;;;;2.66;75.12;99695.09;5053336;28;20504;-50
2021/12/09 06:50:11;;;;;;;32.83;21.55;;;;;;;2.66;74.96;99696.84;5074781;28;20082;-49
2021/12/09 06:52:37;;;;;;;40.05;22.25;;;;;;;2.66;74.73;99702.91;5078012;28;20029;-48
2021/12/09 06:55:04;;;;;;;35.85;20.27;;;;;;;2.65;74.98;99701.19;5076112;28;20034;-50
2021/12/09 06:57:29;;;;;;;40.05;20.65;;;;;;;2.64;75.17;99694.22;5053322;28;20044;-52
2021/12/09 06:59:55;;;;;;;43.80;23.55;;;;;;;2.64;75.02;99688.16;5077598;28;20498;-50
2021/12/09 07:02:20;;;;;;;40.10;22.20;;;;;;;2.64;74.81;99699.41;5078554;28;20015;-50
2021/12/09 07:04:46;;;;;;;37.53;22.63;;;;;;;2.65;74.46;99698.59;5073885;28;20036;-50
2021/12/09 07:07:11;;;;;;;42.67;22.83;;;;;;;2.64;75.21;99694.22;5054889;28;20095;-50
2021/12/09 07:09:38;;;;;;;35.75;20.77;;;;;;;2.64;74.88;99709.84;5074560;28;20020;-49
2021/12/09 07:12:03;;;;;;;41.05;20.83;;;;;;;2.65;74.82;99723.75;5073556;28;20020;-48
2021/12/09 07:14:30;;;;;;;39.95;20.50;;;;;;;2.65;74.81;99721.13;5055755;28;20467;-49
2021/12/09 07:16:55;;;;;;;40.00;23.15;;;;;;;2.65;74.62;99723.75;5074015;28;20062;-49
2021/12/09 07:19:21;;;;;;;40.67;22.05;;;;;;;2.64;74.91;99728.06;5054142;28;20044;-51
2021/12/09 07:21:46;;;;;;;34.55;21.23;;;;;;;2.64;74.69;99725.44;5069154;28;20071;-50
2021/12/09 07:24:12;;;;;;;33.75;20.52;;;;;;;2.64;75.13;99728.06;5069903;28;20036;-51
2021/12/09 07:26:37;;;;;;;32.58;20.08;;;;;;;2.63;74.79;99728.94;5075485;28;20416;-50
2021/12/09 07:29:03;;;;;;;37.55;22.15;;;;;;;2.63;74.91;99741.94;5070655;28;20037;-50
2021/12/09 07:31:29;;;;;;;33.42;20.60;;;;;;;2.64;74.98;99735.00;5072636;28;20107;-50
2021/12/09 07:33:56;;;;;;;41.88;22.45;;;;;;;2.62;74.91;99740.22;5077187;28;20025;-50
2021/12/09 07:36:22;;;;;;;41.03;22.33;;;;;;;2.62;74.96;99729.78;5072858;28;20025;-53
2021/12/09 07:38:48;;;;;;;35.78;21.33;;;;;;;2.64;74.63;99725.44;5073086;28;20081;-51
2021/12/09 07:41:13;;;;;;;38.47;21.77;;;;;;;2.63;74.95;99723.72;5070614;28;20038;-51
2021/12/09 07:43:39;;;;;;;37.17;22.35;;;;;;;2.64;74.56;99725.44;5072204;28;20165;-51
2021/12/09 07:46:05;;;;;;;40.67;22.35;;;;;;;2.63;74.79;99734.13;5070495;28;20036;-51
2021/12/09 07:48:30;;;;;;;37.65;20.85;;;;;;;2.63;75.24;99731.53;5073601;28;20392;-51
2021/12/09 07:50:56;;;;;;;35.78;21.05;;;;;;;2.63;74.90;99747.16;5072206;28;20532;-51
2021/12/09 07:53:22;;;;;;;36.75;21.00;;;;;;;2.63;75.05;99741.94;5040791;28;20077;-51
2021/12/09 07:55:49;;;;;;;39.28;21.40;;;;;;;2.63;75.19;99748.91;5071360;28;20024;-51
2021/12/09 07:58:15;;;;;;;36.30;20.75;;;;;;;2.61;74.76;99746.28;5073964;28;20108;-50
2021/12/09 08:00:40;;;;;;;35.67;20.73;;;;;;;2.63;74.73;99746.31;5073538;28;20030;-51
2021/12/09 08:03:06;;;;;;;33.45;19.92;;;;;;;2.62;74.69;99740.22;5075410;28;20032;-51
2021/12/09 08:05:34;;;;;;;37.67;21.65;;;;;;;2.62;74.73;99729.78;5055591;28;20032;-51
2021/12/09 08:07:59;;;;;;;35.47;20.75;;;;;;;2.61;74.92;99720.25;5077914;28;20035;-51
2021/12/09 08:10:24;;;;;;;39.30;20.88;;;;;;;2.60;74.89;99713.28;5072741;28;20028;-51
2021/12/09 08:12:53;;;;;;;40.13;22.48;;;;;;;2.61;75.10;99720.25;5075363;28;20127;-51
2021/12/09 08:15:18;;;;;;;41.05;22.25;;;;;;;2.61;75.09;99722.84;5071682;28;20024;-51
2021/12/09 08:17:46;;;;;;;40.63;22.40;;;;;;;2.61;74.85;99721.97;5070676;28;20098;-50
2021/12/09 08:20:16;;;;;;;38.92;21.88;;;;;;;2.61;74.83;99722.84;5070620;28;20028;-51
2021/12/09 08:22:43;;;;;;;39.25;20.25;;;;;;;2.62;74.81;99724.59;5068103;28;20051;-51
2021/12/09 08:25:13;;;;;;;38.67;23.40;;;;;;;2.61;75.03;99715.03;5073546;28;21427;-51
2021/12/09 08:27:40;;;;;;;40.25;22.90;;;;;;;2.60;74.83;99722.84;5071449;28;20036;-51
2021/12/09 08:30:07;;;;;;;41.55;22.80;;;;;;;2.60;75.33;99734.09;5051807;28;20168;-51
2021/12/09 08:32:33;;;;;;;42.72;24.70;;;;;;;2.62;74.98;99732.41;5070736;28;20032;-51
2021/12/09 08:34:59;;;;;;;42.35;22.63;;;;;;;2.61;75.00;99724.56;5073809;28;20021;-51
2021/12/09 08:37:25;;;;;;;41.97;24.45;;;;;;;2.58;74.86;99720.22;5071733;28;20073;-51
2021/12/09 08:39:50;;;;;;;37.22;22.65;;;;;;;2.58;74.75;99719.34;5073268;28;20514;-51
2021/12/09 08:42:16;;;;;;;41.15;23.05;;;;;;;2.59;74.72;99721.94;5057660;28;20426;-51
2021/12/09 08:44:41;;;;;;;39.75;21.92;;;;;;;2.59;74.60;99714.13;5071320;28;20465;-51
2021/12/09 08:47:07;;;;;;;38.97;23.08;;;;;;;2.59;75.29;99711.53;5075535;28;20031;-51
2021/12/09 08:49:32;;;;;;;40.83;22.95;;;;;;;2.59;74.80;99716.75;5070827;28;20028;-50
2021/12/09 08:51:58;;;;;;;47.47;25.42;;;;;;;2.60;75.18;99718.47;5074112;28;20030;-50
2021/12/09 08:54:23;;;;;;;42.13;22.92;;;;;;;2.58;75.11;99719.34;5074626;28;20049;-50
2021/12/09 08:56:51;;;;;;;45.58;24.13;;;;;;;2.59;74.76;99716.75;5075088;28;20032;-50
2021/12/09 08:59:17;;;;;;;42.75;22.77;;;;;;;2.60;74.85;99718.47;5077094;28;20028;-50
2021/12/09 09:01:42;;;;;;;43.92;23.50;;;;;;;2.59;74.94;99721.94;5076551;28;20029;-50
2021/12/09 09:04:08;;;;;;;39.80;24.02;;;;;;;2.60;74.76;99718.47;5079843;28;20032;-50
2021/12/09 09:06:33;;;;;;;39.05;23.30;;;;;;;2.59;75.05;99721.94;5075314;28;20033;-50
2021/12/09 09:09:04;;;;;;;41.78;22.45;;;;;;;2.60;74.90;99726.28;5075446;28;20522;-50
2021/12/09 09:11:29;;;;;;;41.47;23.05;;;;;;;2.57;74.78;99728.91;5073677;28;20028;-50
2021/12/09 09:13:54;;;;;;;44.63;24.30;;;;;;;2.60;74.70;99722.84;5073933;28;20036;-50
2021/12/09 09:16:20;;;;;;;38.67;22.70;;;;;;;2.61;75.17;99715.03;5075045;28;20025;-50
2021/12/09 09:18:45;;;;;;;43.33;23.25;;;;;;;2.59;74.76;99721.94;5080716;28;20488;-50
2021/12/09 09:21:20;;;;;;;42.60;23.55;;;;;;;2.60;74.98;99733.25;5076638;28;20029;-50
2021/12/09 09:27:07;;;;;;;43.42;22.70;;;;;;;2.60;74.87;99757.53;5080108;28;20035;-50
2021/12/09 09:29:35;;;;;;;39.67;22.73;;;;;;;2.59;74.82;99761.00;5062165;28;20107;-50
2021/12/09 09:32:01;;;;;;;43.88;24.02;;;;;;;2.59;74.97;99757.50;5079634;28;20479;-49
2021/12/09 09:34:29;;;;;;;45.95;22.73;;;;;;;2.59;74.96;99768.81;5080515;28;20028;-50
2021/12/09 09:36:54;;;;;;;40.88;23.70;;;;;;;2.60;75.11;99764.50;5076360;28;20093;-50
2021/12/09 09:39:22;;;;;;;40.85;22.65;;;;;;;2.59;75.04;99768.81;5072487;28;20433;-50
2021/12/09 09:42:00;;;;;;;44.33;23.60;;;;;;;2.56;74.97;99769.66;5076346;28;20024;-50
2021/12/09 09:44:44;;;;;;;41.70;23.92;;;;;;;2.59;74.96;99762.72;5054671;28;20028;-50
2021/12/09 09:47:09;;;;;;;44.05;23.17;;;;;;;2.59;74.93;99770.53;5079362;28;20073;-50
2021/12/09 09:49:35;;;;;;;41.50;23.30;;;;;;;2.58;74.97;99766.19;5074143;28;20431;-50
2021/12/09 09:52:00;;;;;;;43.08;23.27;;;;;;;2.58;75.01;99772.28;5075616;28;20032;-50
2021/12/09 09:54:26;;;;;;;39.28;21.77;;;;;;;2.59;75.13;99778.34;5074358;28;20021;-50
2021/12/09 09:56:51;;;;;;;38.90;22.30;;;;;;;2.57;74.90;99775.75;5078787;28;20028;-50
2021/12/09 09:59:18;;;;;;;40.65;23.65;;;;;;;2.59;75.13;99778.34;5078904;28;20403;-50
2021/12/09 10:01:45;;;;;;;40.55;22.27;;;;;;;2.58;74.72;99777.50;5076753;28;20026;-50
2021/12/09 10:04:20;;;;;;;44.75;23.95;;;;;;;2.58;75.24;99777.50;5074836;28;20031;-50
2021/12/09 10:06:46;;;;;;;42.08;23.13;;;;;;;2.56;74.71;99768.78;5076174;28;20104;-49
2021/12/09 10:09:14;;;;;;;41.25;22.30;;;;;;;2.58;74.98;99761.88;5071244;28;20024;-50
2021/12/09 10:11:39;;;;;;;39.17;21.92;;;;;;;2.59;74.96;99762.72;5058348;28;20056;-50
2021/12/09 10:14:21;;;;;;;41.03;22.90;;;;;;;2.58;74.68;99771.41;5078327;28;20411;-50
2021/12/09 10:17:03;;;;;;;41.67;23.63;;;;;;;2.60;74.71;99780.97;5076874;28;20478;-50
2021/12/09 10:19:29;;;;;;;40.38;23.88;;;;;;;2.59;74.86;99775.75;5077489;28;20525;-50
2021/12/09 10:22:10;;;;;;;41.78;22.27;;;;;;;2.58;74.76;99772.28;5073166;28;20028;-49
2021/12/09 10:24:37;;;;;;;42.28;22.83;;;;;;;2.58;74.94;99767.09;5075631;28;20036;-49
2021/12/09 10:27:03;;;;;;;39.30;22.60;;;;;;;2.55;74.92;99767.03;5068688;28;20534;-50
2021/12/09 10:29:42;;;;;;;40.53;22.45;;;;;;;2.56;75.01;99774.88;5059366;28;20072;-50
2021/12/09 10:32:13;;;;;;;40.20;23.50;;;;;;;2.57;74.84;99762.75;5079404;28;20032;-50
2021/12/09 10:34:45;;;;;;;41.63;23.40;;;;;;;2.58;74.79;99754.06;5058363;28;20029;-50
2021/12/09 10:37:13;;;;;;;46.55;23.30;;;;;;;2.56;74.83;99755.75;5075748;28;20020;-50
2021/12/09 10:39:57;;;;;;;46.70;22.23;;;;;;;2.58;74.77;99753.19;5080805;28;20031;-49
2021/12/09 10:42:27;;;;;;;41.47;21.60;;;;;;;2.57;74.88;99739.31;5076049;28;20492;-50
2021/12/09 10:44:58;;;;;;;42.20;23.23;;;;;;;2.58;74.79;99734.94;5076451;28;20028;-50
2021/12/09 10:48:04;;;;;;;;;;;;;;;2.58;74.81;99724.53;5079779;28;20020;-49
2021/12/09 10:50:46;;;;;;;44.50;23.25;;;;;;;2.55;74.72;99721.06;5062173;28;19912;-51
2021/12/09 10:55:46;;;;;;;42.75;22.75;;;;;;;2.55;75.03;99712.38;5072751;28;20041;-51
2021/12/09 10:58:13;;;;;;;45.70;23.50;;;;;;;2.55;75.12;99717.59;5072118;28;20035;-51
2021/12/09 11:00:55;;;;;;;41.80;22.95;;;;;;;2.55;75.15;99714.97;5075408;28;20032;-52
2021/12/09 11:03:27;;;;;;;;;;;;;;;2.55;75.05;99713.25;5073318;28;20484;-51
2021/12/09 11:05:52;;;;;;;41.17;22.40;;;;;;;2.54;75.12;99713.25;5080205;28;19912;-50
2021/12/09 11:08:36;;;;;;;44.97;23.10;;;;;;;2.52;75.48;99700.22;5075608;28;20502;-50
2021/12/09 11:11:05;;;;;;;42.85;23.80;;;;;;;2.53;75.12;99701.94;5074659;28;20286;-50
2021/12/09 11:13:39;;;;;;;41.65;23.85;;;;;;;2.53;74.96;99714.09;5072635;28;20024;-50
2021/12/09 11:16:07;;;;;;;45.85;24.98;;;;;;;2.55;74.72;99720.19;5079247;28;20024;-50
2021/12/09 11:19:15;;;;;;;44.05;24.52;;;;;;;2.53;74.99;99711.47;5071118;28;20462;-50
2021/12/09 11:21:55;;;;;;;46.03;23.48;;;;;;;2.56;75.02;99714.13;5069393;28;20028;-51
2021/12/09 11:24:22;;;;;;;45.45;24.15;;;;;;;2.56;74.84;99706.31;5075532;28;20023;-50
2021/12/09 11:26:57;;;;;;;42.67;23.67;;;;;;;2.55;75.11;99714.97;5058813;28;20364;-50
2021/12/09 11:29:34;;;;;;;44.53;24.63;;;;;;;2.55;74.69;99714.97;5080842;28;20468;-49
2021/12/09 11:32:22;;;;;;;45.92;24.50;;;;;;;2.55;74.96;99726.28;5073697;28;20093;-50
2021/12/09 11:34:58;;;;;;;39.63;23.13;;;;;;;2.56;74.75;99742.75;5072169;28;20024;-50
2021/12/09 11:40:25;;;;;;;45.80;23.42;;;;;;;2.56;75.17;99742.75;5076913;28;20398;-51
2021/12/09 11:42:57;;;;;;;44.72;24.00;;;;;;;2.55;75.12;99741.91;5071375;28;20028;-50
2021/12/09 11:48:45;;;;;;;;;;;;;;;2.61;74.56;99741.06;5070194;28;20051;-52
2021/12/09 11:51:10;;;;;;;45.42;23.13;;;;;;;2.57;74.58;99721.09;5073049;28;19916;-51
2021/12/09 11:53:38;;;;;;;46.72;24.00;;;;;;;2.57;75.18;99718.47;5071402;28;20032;-51